createdAt,value
2018-11-03T00:01:13.728Z,8.58
2018-11-03T00:03:41.133Z,7.45
2018-11-03T00:06:08.433Z,7.83
2018-11-03T00:08:35.749Z,8.53
2018-11-03T00:11:03.081Z,8.20
2018-11-03T00:13:30.363Z,8.73
2018-11-03T00:15:57.712Z,9.70
2018-11-03T00:18:24.993Z,8.95
2018-11-03T00:20:52.285Z,9.20
2018-11-03T00:23:19.576Z,8.80
2018-11-03T00:25:46.902Z,9.10
2018-11-03T00:28:14.259Z,9.83
2018-11-03T00:30:41.585Z,8.38
2018-11-03T00:33:08.873Z,8.10
2018-11-03T00:35:36.169Z,7.28
2018-11-03T00:38:03.512Z,7.80
2018-11-03T00:40:30.805Z,7.80
2018-11-03T00:42:58.094Z,6.70
2018-11-03T00:45:25.409Z,7.47
2018-11-03T00:47:52.709Z,8.00
2018-11-03T00:50:19.992Z,6.55
2018-11-03T00:52:47.285Z,7.30
2018-11-03T00:55:14.580Z,6.65
2018-11-03T00:57:42.372Z,6.40
2018-11-03T01:00:11.753Z,6.85
2018-11-03T01:02:40.229Z,7.20
2018-11-03T01:05:08.121Z,6.60
2018-11-03T01:07:35.985Z,7.33
2018-11-03T01:10:03.513Z,7.62
2018-11-03T01:12:30.797Z,6.55
2018-11-03T01:14:58.080Z,7.20
2018-11-03T01:17:25.356Z,8.10
2018-11-03T01:19:52.649Z,7.78
2018-11-03T01:22:19.941Z,7.90
2018-11-03T01:24:47.225Z,7.13
2018-11-03T01:27:14.590Z,7.70
2018-11-03T01:29:41.953Z,6.53
2018-11-03T01:32:09.313Z,6.57
2018-11-03T01:34:36.716Z,7.10
2018-11-03T01:37:04.088Z,7.20
2018-11-03T01:39:31.573Z,6.93
2018-11-03T01:41:59.244Z,7.60
2018-11-03T01:44:26.532Z,7.92
2018-11-03T01:46:53.829Z,7.30
2018-11-03T01:49:21.549Z,6.83
2018-11-03T01:51:48.825Z,7.60
2018-11-03T01:54:16.228Z,7.72
2018-11-03T01:56:44.161Z,8.03
2018-11-03T01:59:11.521Z,7.73
2018-11-03T02:01:38.828Z,9.63
2018-11-03T02:04:06.174Z,8.25
2018-11-03T02:06:33.580Z,9.65
2018-11-03T02:09:00.877Z,8.00
2018-11-03T02:11:28.377Z,8.07
2018-11-03T02:13:55.670Z,7.95
2018-11-03T02:16:23.300Z,8.30
2018-11-03T02:18:51.063Z,8.60
2018-11-03T02:21:18.542Z,8.25
2018-11-03T02:23:45.879Z,8.43
2018-11-03T02:26:13.170Z,8.07
2018-11-03T02:28:40.461Z,8.48
2018-11-03T02:31:07.768Z,7.75
2018-11-03T02:33:35.066Z,9.95
2018-11-03T02:36:02.374Z,13.18
2018-11-03T02:38:29.675Z,16.65
2018-11-03T02:40:56.969Z,33.05
2018-11-03T02:43:24.273Z,18.98
2018-11-03T02:45:51.577Z,35.10
2018-11-03T02:48:18.881Z,18.15
2018-11-03T02:50:46.169Z,12.10
2018-11-03T02:53:13.456Z,10.55
2018-11-03T02:55:40.750Z,9.33
2018-11-03T02:58:08.017Z,10.30
2018-11-03T03:00:35.325Z,9.83
2018-11-03T03:03:02.677Z,11.28
2018-11-03T03:05:29.952Z,11.88
2018-11-03T03:07:57.248Z,13.25
2018-11-03T03:10:24.521Z,11.48
2018-11-03T03:12:51.808Z,13.22
2018-11-03T03:15:19.089Z,12.07
2018-11-03T03:17:46.406Z,11.83
2018-11-03T03:20:13.651Z,11.80
2018-11-03T03:22:41.196Z,11.30
2018-11-03T03:25:09.401Z,10.35
2018-11-03T03:27:36.697Z,10.43
2018-11-03T03:30:04.401Z,9.43
2018-11-03T03:32:31.696Z,10.65
2018-11-03T03:34:58.988Z,13.20
2018-11-03T03:37:26.317Z,10.35
2018-11-03T03:39:53.606Z,10.20
2018-11-03T03:42:20.981Z,9.20
2018-11-03T03:44:48.288Z,8.70
2018-11-03T03:47:15.589Z,7.95
2018-11-03T03:49:42.853Z,9.25
2018-11-03T03:52:10.129Z,10.00
2018-11-03T03:54:37.549Z,9.23
2018-11-03T03:57:04.941Z,8.95
2018-11-03T03:59:32.233Z,8.35
2018-11-03T04:01:59.519Z,8.55
2018-11-03T04:04:26.818Z,8.98
2018-11-03T04:06:54.123Z,8.13
2018-11-03T04:09:21.376Z,8.70
2018-11-03T04:11:48.652Z,8.68
2018-11-03T04:14:15.940Z,8.55
2018-11-03T04:16:43.212Z,8.85
2018-11-03T04:19:10.526Z,9.00
2018-11-03T04:21:37.807Z,9.45
2018-11-03T04:24:05.133Z,9.93
2018-11-03T04:26:32.407Z,8.70
2018-11-03T04:28:59.714Z,8.30
2018-11-03T04:31:27.486Z,8.48
2018-11-03T04:33:54.802Z,8.55
2018-11-03T04:36:22.093Z,8.43
2018-11-03T04:38:49.464Z,7.95
2018-11-03T04:41:16.765Z,9.68
2018-11-03T04:43:44.062Z,9.78
2018-11-03T04:46:11.341Z,9.30
2018-11-03T04:48:38.613Z,10.55
2018-11-03T04:51:06.234Z,9.38
2018-11-03T04:53:33.500Z,9.65
2018-11-03T04:56:00.784Z,9.68
2018-11-03T04:58:28.057Z,9.45
2018-11-03T05:00:55.357Z,9.45
2018-11-03T05:03:22.727Z,9.00
2018-11-03T05:05:50.096Z,9.10
2018-11-03T05:08:17.382Z,8.45
2018-11-03T05:10:44.665Z,8.48
2018-11-03T05:13:12.824Z,10.00
2018-11-03T05:15:40.114Z,10.48
2018-11-03T05:18:07.380Z,10.20
2018-11-03T05:20:34.682Z,9.05
2018-11-03T05:23:01.950Z,10.48
2018-11-03T05:25:29.237Z,9.60
2018-11-03T05:27:56.601Z,9.40
2018-11-03T05:30:23.880Z,9.48
2018-11-03T05:32:51.148Z,9.53
2018-11-03T05:35:18.437Z,9.08
2018-11-03T05:37:45.718Z,10.18
2018-11-03T05:40:13.017Z,10.18
2018-11-03T05:42:40.280Z,9.95
2018-11-03T05:45:07.617Z,9.65
2018-11-03T05:47:34.897Z,9.70
2018-11-03T05:50:02.194Z,9.30
2018-11-03T05:52:29.537Z,9.70
2018-11-03T05:54:56.838Z,9.83
2018-11-03T05:57:24.129Z,10.25
2018-11-03T05:59:51.406Z,9.78
2018-11-03T06:02:18.713Z,10.50
2018-11-03T06:04:45.988Z,9.20
2018-11-03T06:07:13.318Z,10.85
2018-11-03T06:09:40.609Z,10.98
2018-11-03T06:12:07.873Z,10.85
2018-11-03T06:14:35.174Z,11.00
2018-11-03T06:17:02.514Z,10.13
2018-11-03T06:19:29.785Z,10.20
2018-11-03T06:21:57.252Z,10.05
2018-11-03T06:24:24.812Z,8.98
2018-11-03T06:26:52.124Z,10.35
2018-11-03T06:29:19.449Z,10.63
2018-11-03T06:31:46.726Z,10.38
2018-11-03T06:34:14.053Z,11.50
2018-11-03T06:36:41.340Z,11.30
2018-11-03T06:39:08.858Z,10.70
2018-11-03T06:41:36.297Z,10.25
2018-11-03T06:44:03.669Z,10.82
2018-11-03T06:46:31.017Z,10.30
2018-11-03T06:49:03.837Z,11.35
2018-11-03T06:51:31.253Z,10.93
2018-11-03T06:53:59.344Z,11.00
2018-11-03T06:56:26.617Z,11.95
2018-11-03T06:58:53.905Z,12.10
2018-11-03T07:01:21.196Z,10.95
2018-11-03T07:03:48.498Z,10.35
2018-11-03T07:06:15.801Z,10.93
2018-11-03T07:08:43.121Z,10.70
2018-11-03T07:11:10.408Z,10.95
2018-11-03T07:13:37.696Z,12.05
2018-11-03T07:16:05.350Z,11.57
2018-11-03T07:18:32.649Z,10.80
2018-11-03T07:20:59.933Z,10.80
2018-11-03T07:23:27.233Z,11.65
2018-11-03T07:25:54.496Z,9.75
2018-11-03T07:28:21.876Z,11.18
2018-11-03T07:30:49.132Z,11.25
2018-11-03T07:33:16.441Z,10.82
2018-11-03T07:35:43.741Z,11.38
2018-11-03T07:38:11.101Z,11.35
2018-11-03T07:40:38.395Z,11.83
2018-11-03T07:43:05.640Z,12.03
2018-11-03T07:45:32.984Z,11.20
2018-11-03T07:48:00.332Z,11.78
2018-11-03T07:50:27.536Z,11.70
2018-11-03T07:52:54.805Z,11.68
2018-11-03T07:55:22.105Z,14.23
2018-11-03T07:57:49.418Z,14.30
2018-11-03T08:00:16.729Z,13.45
2018-11-03T08:02:44.037Z,13.62
2018-11-03T08:05:11.796Z,12.82
2018-11-03T08:07:39.129Z,14.68
2018-11-03T08:10:07.628Z,13.98
2018-11-03T08:12:34.939Z,14.58
2018-11-03T08:15:02.221Z,14.90
2018-11-03T08:17:29.488Z,15.45
2018-11-03T08:19:56.813Z,15.55
2018-11-03T08:22:24.409Z,13.93
2018-11-03T08:24:51.723Z,15.83
2018-11-03T08:27:19.004Z,14.28
2018-11-03T08:29:46.292Z,17.07
2018-11-03T08:32:13.580Z,16.55
2018-11-03T08:34:40.857Z,16.50
2018-11-03T08:37:08.161Z,16.75
2018-11-03T08:39:35.545Z,17.17
2018-11-03T08:42:02.800Z,17.48
2018-11-03T08:44:30.088Z,18.30
2018-11-03T08:46:57.377Z,19.12
2018-11-03T08:49:24.648Z,19.00
2018-11-03T08:51:51.926Z,17.42
2018-11-03T08:54:19.210Z,18.75
2018-11-03T08:56:46.493Z,18.10
2018-11-03T08:59:13.772Z,18.48
2018-11-03T09:01:41.054Z,18.42
2018-11-03T09:04:08.332Z,18.15
2018-11-03T09:06:35.638Z,17.92
2018-11-03T09:09:03.806Z,19.10
2018-11-03T09:11:31.069Z,20.02
2018-11-03T09:13:58.336Z,18.60
2018-11-03T09:16:25.608Z,18.40
2018-11-03T09:18:52.901Z,22.42
2018-11-03T09:21:20.261Z,17.23
2018-11-03T09:23:47.590Z,18.42
2018-11-03T09:26:14.886Z,19.73
2018-11-03T09:28:42.201Z,20.80
2018-11-03T09:31:09.572Z,16.90
2018-11-03T09:33:36.860Z,15.98
2018-11-03T09:36:04.573Z,15.80
2018-11-03T09:38:31.927Z,15.93
2018-11-03T09:40:59.161Z,19.87
2018-11-03T09:43:26.592Z,18.10
2018-11-03T09:45:53.870Z,18.02
2018-11-03T09:48:21.164Z,16.30
2018-11-03T09:50:48.681Z,17.40
2018-11-03T09:53:15.816Z,17.12
2018-11-03T09:55:43.101Z,17.60
2018-11-03T09:58:10.410Z,16.87
2018-11-03T10:00:37.689Z,15.43
2018-11-03T10:03:05.130Z,15.53
2018-11-03T10:05:32.419Z,17.00
2018-11-03T10:07:59.733Z,16.73
2018-11-03T10:10:27.017Z,16.87
2018-11-03T10:12:54.305Z,16.50
2018-11-03T10:15:21.605Z,16.23
2018-11-03T10:17:48.915Z,17.60
2018-11-03T10:20:16.198Z,18.45
2018-11-03T10:22:43.528Z,15.28
2018-11-03T10:25:13.269Z,17.62
2018-11-03T10:27:40.834Z,17.92
2018-11-03T10:30:09.544Z,17.80
2018-11-03T10:32:37.472Z,17.12
2018-11-03T10:35:05.194Z,17.32
2018-11-03T10:37:32.496Z,17.90
2018-11-03T10:39:59.818Z,17.53
2018-11-03T10:42:27.357Z,16.97
2018-11-03T10:44:54.872Z,17.37
2018-11-03T10:47:22.136Z,18.30
2018-11-03T10:49:49.415Z,16.85
2018-11-03T10:52:16.697Z,17.77
2018-11-03T10:54:44.025Z,16.43
2018-11-03T10:57:11.397Z,19.03
2018-11-03T10:59:38.892Z,17.47
2018-11-03T11:02:11.866Z,18.17
2018-11-03T11:04:44.760Z,16.03
2018-11-03T11:07:17.395Z,18.13
2018-11-03T11:09:50.597Z,16.13
2018-11-03T11:12:23.701Z,17.90
2018-11-03T11:14:51.189Z,16.43
2018-11-03T11:17:18.461Z,18.57
2018-11-03T11:19:45.776Z,18.07
2018-11-03T11:22:13.109Z,17.47
2018-11-03T11:24:40.659Z,16.00
2018-11-03T11:27:07.845Z,18.10
2018-11-03T11:29:35.129Z,18.20
2018-11-03T11:32:02.449Z,16.63
2018-11-03T11:34:29.712Z,18.47
2018-11-03T11:36:57.009Z,16.83
2018-11-03T11:39:24.330Z,21.17
2018-11-03T11:41:51.593Z,24.37
2018-11-03T11:44:19.163Z,19.00
2018-11-03T11:46:46.447Z,17.57
2018-11-03T11:49:13.862Z,16.80
2018-11-03T11:51:41.153Z,15.63
2018-11-03T11:54:08.528Z,17.17
2018-11-03T11:56:35.796Z,16.93
2018-11-03T11:59:03.158Z,17.57
2018-11-03T12:01:30.540Z,16.80
2018-11-03T12:03:57.821Z,19.37
2018-11-03T12:06:25.205Z,17.70
2018-11-03T12:08:52.473Z,16.83
2018-11-03T12:11:19.793Z,19.43
2018-11-03T12:13:47.180Z,17.30
2018-11-03T12:16:14.525Z,17.90
2018-11-03T12:18:41.728Z,17.87
2018-11-03T12:21:09.053Z,17.80
2018-11-03T12:23:36.361Z,17.23
2018-11-03T12:26:03.853Z,17.17
2018-11-03T12:28:31.124Z,17.37
2018-11-03T12:30:58.420Z,17.40
2018-11-03T12:33:25.693Z,18.07
2018-11-03T12:35:52.972Z,16.57
2018-11-03T12:38:20.292Z,18.10
2018-11-03T12:40:47.656Z,17.67
2018-11-03T12:43:14.869Z,15.60
2018-11-03T12:45:42.177Z,16.23
2018-11-03T12:48:09.507Z,17.07
2018-11-03T12:50:36.719Z,17.33
2018-11-03T12:53:04.060Z,17.50
2018-11-03T12:55:31.333Z,15.67
2018-11-03T12:57:58.614Z,16.30
2018-11-03T13:00:25.876Z,16.17
2018-11-03T13:02:53.152Z,16.10
2018-11-03T13:05:20.543Z,16.20
2018-11-03T13:07:47.790Z,16.07
2018-11-03T13:10:15.086Z,16.73
2018-11-03T13:12:42.673Z,16.47
2018-11-03T13:15:11.251Z,17.20
2018-11-03T13:17:38.780Z,16.53
2018-11-03T13:20:07.300Z,16.63
2018-11-03T13:22:34.592Z,17.03
2018-11-03T13:25:01.854Z,19.67
2018-11-03T13:27:29.132Z,18.70
2018-11-03T13:29:56.406Z,19.37
2018-11-03T13:32:23.669Z,17.90
2018-11-03T13:34:50.973Z,16.67
2018-11-03T13:37:18.244Z,20.43
2018-11-03T13:39:45.586Z,17.37
2018-11-03T13:42:12.860Z,17.20
2018-11-03T13:44:40.153Z,18.40
2018-11-03T13:47:07.504Z,17.73
2018-11-03T13:49:34.945Z,17.23
2018-11-03T13:52:02.209Z,17.27
2018-11-03T13:54:29.491Z,19.07
2018-11-03T13:56:56.791Z,18.50
2018-11-03T13:59:24.074Z,18.47
2018-11-03T14:01:51.409Z,17.30
2018-11-03T14:04:18.685Z,19.67
2018-11-03T14:06:45.940Z,18.10
2018-11-03T14:09:13.239Z,17.13
2018-11-03T14:11:40.642Z,18.90
2018-11-03T14:14:07.988Z,17.13
2018-11-03T14:16:35.435Z,15.83
2018-11-03T14:19:02.757Z,15.90
2018-11-03T14:21:30.120Z,18.27
2018-11-03T14:23:57.585Z,18.33
2018-11-03T14:26:24.953Z,18.40
2018-11-03T14:28:52.242Z,17.70
2018-11-03T14:31:19.541Z,17.57
2018-11-03T14:33:46.797Z,17.33
2018-11-03T14:36:14.175Z,18.13
2018-11-03T14:38:41.409Z,18.07
2018-11-03T14:41:08.676Z,23.67
2018-11-03T14:43:36.021Z,20.40
2018-11-03T14:46:03.401Z,16.27
2018-11-03T14:48:30.709Z,19.30
2018-11-03T14:50:58.163Z,19.63
2018-11-03T14:53:25.409Z,17.40
2018-11-03T14:55:52.675Z,15.77
2018-11-03T14:58:19.941Z,21.53
2018-11-03T15:00:47.233Z,19.27
2018-11-03T15:03:14.496Z,19.93
2018-11-03T15:05:41.792Z,21.27
2018-11-03T15:08:09.061Z,21.70
2018-11-03T15:10:36.393Z,19.40
2018-11-03T15:13:03.852Z,18.60
2018-11-03T15:15:31.148Z,18.00
2018-11-03T15:17:58.404Z,18.57
2018-11-03T15:20:25.669Z,21.67
2018-11-03T15:22:52.981Z,21.37
2018-11-03T15:25:20.288Z,19.17
2018-11-03T15:27:47.633Z,29.77
2018-11-03T15:30:15.004Z,25.67
2018-11-03T15:32:42.533Z,20.27
2018-11-03T15:35:10.556Z,20.10
2018-11-03T15:37:38.177Z,19.77
2018-11-03T15:40:07.545Z,25.40
2018-11-03T15:42:34.928Z,20.93
2018-11-03T15:45:02.328Z,23.80
2018-11-03T15:47:29.634Z,21.30
2018-11-03T15:49:56.933Z,19.57
2018-11-03T15:52:24.862Z,18.43
2018-11-03T15:54:52.151Z,18.70
2018-11-03T15:57:19.485Z,18.63
2018-11-03T15:59:46.771Z,19.67
2018-11-03T16:02:14.060Z,18.37
2018-11-03T16:04:41.334Z,19.07
2018-11-03T16:07:08.619Z,20.20
2018-11-03T16:09:35.900Z,20.07
2018-11-03T16:12:03.277Z,16.30
2018-11-03T16:14:30.609Z,19.07
2018-11-03T16:16:57.896Z,16.87
2018-11-03T16:19:25.275Z,17.57
2018-11-03T16:21:52.520Z,18.23
2018-11-03T16:24:19.816Z,17.10
2018-11-03T16:26:47.120Z,17.50
2018-11-03T16:29:14.419Z,17.30
2018-11-03T16:31:41.731Z,17.30
2018-11-03T16:34:09.108Z,17.50
2018-11-03T16:36:36.419Z,18.60
2018-11-03T16:39:06.510Z,22.03
2018-11-03T16:41:33.782Z,25.17
2018-11-03T16:44:01.073Z,26.13
2018-11-03T16:46:28.340Z,28.50
2018-11-03T16:48:55.592Z,32.17
2018-11-03T16:51:22.857Z,27.60
2018-11-03T16:53:50.117Z,27.77
2018-11-03T16:56:17.383Z,25.70
2018-11-03T16:58:44.678Z,24.30
2018-11-03T17:01:11.914Z,21.10
2018-11-03T17:03:39.273Z,22.77
2018-11-03T17:06:06.565Z,24.10
2018-11-03T17:08:33.917Z,22.57
2018-11-03T17:11:01.188Z,24.30
2018-11-03T17:13:28.461Z,23.57
2018-11-03T17:15:55.746Z,24.33
2018-11-03T17:18:23.005Z,24.40
2018-11-03T17:20:50.298Z,24.10
2018-11-03T17:23:17.606Z,23.27
2018-11-03T17:25:44.857Z,26.60
2018-11-03T17:28:12.112Z,25.23
2018-11-03T17:30:39.430Z,25.27
2018-11-03T17:33:06.713Z,25.50
2018-11-03T17:35:33.993Z,23.90
2018-11-03T17:38:01.273Z,24.00
2018-11-03T17:40:28.596Z,29.90
2018-11-03T17:42:55.858Z,36.20
2018-11-03T17:45:23.149Z,32.73
2018-11-03T17:47:50.484Z,36.00
2018-11-03T17:50:17.757Z,24.10
2018-11-03T17:52:45.021Z,25.30
2018-11-03T17:55:12.379Z,26.40
2018-11-03T17:57:39.700Z,23.50
2018-11-03T18:00:10.331Z,22.57
2018-11-03T18:02:37.626Z,21.37
2018-11-03T18:05:05.308Z,21.57
2018-11-03T18:07:32.639Z,22.37
2018-11-03T18:09:59.905Z,21.70
2018-11-03T18:12:27.173Z,21.80
2018-11-03T18:14:54.454Z,22.07
2018-11-03T18:17:21.758Z,23.97
2018-11-03T18:19:49.116Z,25.00
2018-11-03T18:22:16.316Z,25.80
2018-11-03T18:24:43.614Z,26.40
2018-11-03T18:27:10.909Z,27.60
2018-11-03T18:29:38.268Z,28.30
2018-11-03T18:32:05.557Z,31.30
2018-11-03T18:34:32.826Z,33.03
2018-11-03T18:37:00.225Z,36.30
2018-11-03T18:39:27.505Z,35.77
2018-11-03T18:41:54.805Z,32.73
2018-11-03T18:44:22.107Z,27.90
2018-11-03T18:46:49.527Z,24.90
2018-11-03T18:49:16.694Z,24.27
2018-11-03T18:51:44.027Z,31.43
2018-11-03T18:54:11.317Z,27.90
2018-11-03T18:56:38.601Z,25.40
2018-11-03T18:59:05.895Z,24.50
2018-11-03T19:01:33.186Z,26.67
2018-11-03T19:04:00.480Z,23.70
2018-11-03T19:06:27.775Z,21.50
2018-11-03T19:08:55.093Z,21.07
2018-11-03T19:11:22.412Z,23.57
2018-11-03T19:13:49.725Z,21.53
2018-11-03T19:16:17.023Z,21.13
2018-11-03T19:18:44.316Z,22.27
2018-11-03T19:21:11.602Z,23.60
2018-11-03T19:23:38.971Z,24.10
2018-11-03T19:26:06.232Z,22.23
2018-11-03T19:28:33.520Z,25.30
2018-11-03T19:31:00.804Z,27.60
2018-11-03T19:33:28.101Z,31.20
2018-11-03T19:35:55.369Z,28.77
2018-11-03T19:38:22.685Z,29.53
2018-11-03T19:40:49.936Z,27.33
2018-11-03T19:43:17.248Z,24.73
2018-11-03T19:45:44.543Z,24.87
2018-11-03T19:48:11.867Z,24.00
2018-11-03T19:50:39.128Z,23.40
2018-11-03T19:53:06.453Z,23.20
2018-11-03T19:55:34.001Z,24.60
2018-11-03T19:58:01.261Z,24.47
2018-11-03T20:00:28.564Z,25.27
2018-11-03T20:02:55.843Z,27.20
2018-11-03T20:05:23.136Z,28.77
2018-11-03T20:07:50.425Z,27.27
2018-11-03T20:10:17.757Z,28.23
2018-11-03T20:12:45.018Z,26.70
2018-11-03T20:15:12.837Z,28.43
2018-11-03T20:17:40.374Z,28.20
2018-11-03T20:20:09.156Z,28.50
2018-11-03T20:22:36.428Z,27.70
2018-11-03T20:25:04.888Z,24.23
2018-11-03T20:27:32.153Z,27.30
2018-11-03T20:29:59.452Z,24.90
2018-11-03T20:32:26.713Z,27.10
2018-11-03T20:34:54.072Z,27.47
2018-11-03T20:37:21.337Z,30.03
2018-11-03T20:39:48.623Z,29.30
2018-11-03T20:42:15.908Z,29.77
2018-11-03T20:44:43.200Z,28.17
2018-11-03T20:47:10.473Z,27.53
2018-11-03T20:49:37.732Z,27.70
2018-11-03T20:52:05.138Z,27.57
2018-11-03T20:54:32.482Z,29.50
2018-11-03T20:56:59.756Z,31.93
2018-11-03T20:59:27.035Z,31.83
2018-11-03T21:01:54.315Z,29.47
2018-11-03T21:04:21.613Z,27.27
2018-11-03T21:06:48.865Z,27.17
2018-11-03T21:09:16.142Z,28.60
2018-11-03T21:11:43.431Z,28.80
2018-11-03T21:14:10.730Z,29.40
2018-11-03T21:16:38.081Z,29.43
2018-11-03T21:19:05.717Z,27.43
2018-11-03T21:21:33.000Z,27.93
2018-11-03T21:24:00.581Z,29.13
2018-11-03T21:26:27.798Z,26.97
2018-11-03T21:28:55.060Z,29.57
2018-11-03T21:31:22.397Z,26.73
2018-11-03T21:33:49.658Z,27.37
2018-11-03T21:36:16.962Z,28.27
2018-11-03T21:38:44.348Z,27.70
2018-11-03T21:41:11.590Z,27.35
2018-11-03T21:43:38.869Z,28.80
2018-11-03T21:46:06.653Z,29.77
2018-11-03T21:48:33.892Z,29.97
2018-11-03T21:51:01.184Z,29.23
2018-11-03T21:53:28.456Z,27.83
2018-11-03T21:55:55.848Z,27.70
2018-11-03T21:58:23.038Z,32.70
2018-11-03T22:00:50.336Z,42.73
2018-11-03T22:03:17.672Z,43.43
2018-11-03T22:05:44.967Z,42.23
2018-11-03T22:08:12.233Z,40.77
2018-11-03T22:10:39.614Z,34.80
2018-11-03T22:13:06.899Z,34.50
2018-11-03T22:15:34.209Z,33.00
2018-11-03T22:18:01.488Z,34.70
2018-11-03T22:20:28.773Z,31.67
2018-11-03T22:22:56.045Z,33.10
2018-11-03T22:25:23.352Z,34.93
2018-11-03T22:27:50.715Z,35.60
2018-11-03T22:30:17.964Z,33.20
2018-11-03T22:32:45.313Z,31.53
2018-11-03T22:35:12.613Z,32.67
2018-11-03T22:37:39.954Z,31.00
2018-11-03T22:40:07.705Z,34.70
2018-11-03T22:42:35.001Z,33.87
2018-11-03T22:45:02.319Z,35.50
2018-11-03T22:47:29.634Z,33.90
2018-11-03T22:49:56.932Z,34.70
2018-11-03T22:52:24.256Z,36.13
2018-11-03T22:54:51.593Z,34.90
2018-11-03T22:57:18.881Z,36.70
2018-11-03T22:59:46.256Z,35.30
2018-11-03T23:02:13.549Z,33.83
2018-11-03T23:04:40.868Z,33.70
2018-11-03T23:07:08.191Z,31.97
2018-11-03T23:09:35.490Z,32.70
2018-11-03T23:12:03.261Z,32.03
2018-11-03T23:14:30.565Z,34.47
2018-11-03T23:16:57.854Z,34.47
2018-11-03T23:19:25.211Z,35.93
2018-11-03T23:21:52.530Z,32.03
2018-11-03T23:24:19.818Z,33.27
2018-11-03T23:26:47.157Z,32.60
2018-11-03T23:29:14.485Z,33.03
2018-11-03T23:31:41.768Z,31.87
2018-11-03T23:34:09.066Z,30.37
2018-11-03T23:36:36.409Z,30.70
2018-11-03T23:39:06.540Z,32.47
2018-11-03T23:41:33.841Z,33.10
2018-11-03T23:44:01.148Z,33.30
2018-11-03T23:46:28.416Z,33.50
2018-11-03T23:48:55.718Z,31.27
2018-11-03T23:51:23.015Z,29.90
2018-11-03T23:53:50.304Z,32.00
2018-11-03T23:56:17.577Z,31.40
2018-11-03T23:58:44.873Z,31.17
